createdAt,value
2018-01-19T00:00:21.595Z,4.07
2018-01-19T00:02:51.853Z,3.30
2018-01-19T00:05:27.555Z,3.67
2018-01-19T00:07:58.958Z,4.23
2018-01-19T00:10:28.491Z,3.70
2018-01-19T00:12:58.059Z,3.30
2018-01-19T00:15:31.389Z,4.13
2018-01-19T00:18:07.712Z,4.37
2018-01-19T00:20:37.318Z,4.50
2018-01-19T00:23:06.863Z,5.00
2018-01-19T00:25:36.398Z,3.97
2018-01-19T00:28:05.912Z,5.07
2018-01-19T00:30:35.492Z,4.00
2018-01-19T00:33:04.969Z,3.83
2018-01-19T00:35:34.522Z,3.70
2018-01-19T00:40:40.084Z,2.93
2018-01-19T00:43:09.591Z,3.03
2018-01-19T00:45:39.666Z,3.07
2018-01-19T00:48:09.201Z,2.80
2018-01-19T00:50:58.824Z,4.67
2018-01-19T00:53:28.317Z,3.90
2018-01-19T00:56:10.629Z,4.23
2018-01-19T00:58:43.425Z,3.40
2018-01-19T01:01:12.984Z,2.97
2018-01-19T01:03:42.519Z,3.73
2018-01-19T01:06:12.021Z,3.20
2018-01-19T01:08:41.567Z,4.00
2018-01-19T01:11:11.097Z,3.00
2018-01-19T01:13:40.567Z,4.30
2018-01-19T01:16:13.760Z,3.87
2018-01-19T01:18:43.305Z,4.00
2018-01-19T01:21:13.178Z,3.77
2018-01-19T01:23:42.706Z,2.90
2018-01-19T01:26:14.458Z,3.17
2018-01-19T01:28:43.983Z,2.77
2018-01-19T01:31:13.483Z,3.13
2018-01-19T01:33:43.030Z,2.80
2018-01-19T01:36:12.597Z,3.67
2018-01-19T01:38:42.138Z,4.00
2018-01-19T01:41:11.693Z,3.47
2018-01-19T01:43:41.189Z,4.53
2018-01-19T01:46:10.709Z,3.00
2018-01-19T01:48:46.849Z,2.57
2018-01-19T01:51:16.376Z,3.00
2018-01-19T01:53:45.898Z,2.80
2018-01-19T01:56:15.440Z,3.10
2018-01-19T01:58:44.949Z,2.90
2018-01-19T02:01:14.620Z,3.10
2018-01-19T02:03:44.176Z,3.40
2018-01-19T02:06:14.752Z,3.13
2018-01-19T02:08:44.325Z,3.27
2018-01-19T02:11:14.019Z,3.07
2018-01-19T02:13:43.546Z,3.43
2018-01-19T02:16:26.801Z,3.07
2018-01-19T02:18:56.338Z,2.97
2018-01-19T02:21:26.761Z,3.50
2018-01-19T02:23:56.434Z,3.23
2018-01-19T02:26:26.033Z,3.33
2018-01-19T02:28:55.734Z,2.90
2018-01-19T02:31:25.256Z,3.60
2018-01-19T02:33:54.892Z,3.67
2018-01-19T02:36:24.530Z,3.63
2018-01-19T02:38:54.027Z,2.97
2018-01-19T02:41:25.083Z,3.60
2018-01-19T02:43:54.865Z,3.30
2018-01-19T02:46:24.461Z,3.23
2018-01-19T02:48:54.058Z,3.83
2018-01-19T02:51:23.578Z,3.33
2018-01-19T02:53:53.289Z,3.57
2018-01-19T02:56:37.948Z,4.17
2018-01-19T02:59:07.481Z,3.37
2018-01-19T03:01:37.030Z,3.60
2018-01-19T03:04:06.725Z,3.70
2018-01-19T03:06:37.265Z,3.83
2018-01-19T03:09:06.930Z,4.13
2018-01-19T03:11:36.456Z,3.70
2018-01-19T03:14:06.154Z,4.80
2018-01-19T03:16:35.733Z,5.00
2018-01-19T03:19:05.310Z,5.67
2018-01-19T03:21:34.829Z,4.27
2018-01-19T03:24:04.552Z,4.50
2018-01-19T03:26:34.166Z,4.53
2018-01-19T03:29:03.757Z,4.30
2018-01-19T03:31:33.332Z,4.17
2018-01-19T03:34:03.050Z,4.50
2018-01-19T03:36:33.562Z,4.70
2018-01-19T03:39:03.180Z,6.50
2018-01-19T03:41:35.909Z,6.53
2018-01-19T03:44:05.434Z,4.37
2018-01-19T03:46:35.046Z,4.27
2018-01-19T03:49:04.649Z,5.57
2018-01-19T03:51:34.194Z,5.43
2018-01-19T03:54:03.709Z,4.83
2018-01-19T03:56:33.241Z,5.80
2018-01-19T03:59:02.751Z,4.63
2018-01-19T04:01:32.377Z,4.87
2018-01-19T04:04:02.020Z,5.40
2018-01-19T04:06:31.590Z,5.83
2018-01-19T04:09:01.146Z,5.67
2018-01-19T04:11:30.681Z,6.00
2018-01-19T04:16:36.097Z,5.93
2018-01-19T04:19:05.621Z,6.13
2018-01-19T04:21:46.421Z,5.47
2018-01-19T04:24:16.426Z,5.07
2018-01-19T04:26:46.028Z,5.50
2018-01-19T04:29:16.630Z,5.37
2018-01-19T04:31:59.317Z,6.53
2018-01-19T04:34:28.837Z,5.93
2018-01-19T04:36:58.410Z,5.37
2018-01-19T04:39:28.884Z,5.73
2018-01-19T04:41:58.377Z,5.47
2018-01-19T04:44:28.176Z,6.33
2018-01-19T04:46:57.715Z,5.70
2018-01-19T04:49:27.259Z,5.90
2018-01-19T04:51:56.742Z,5.93
2018-01-19T04:54:39.894Z,5.87
2018-01-19T04:57:09.441Z,5.80
2018-01-19T04:59:39.018Z,5.80
2018-01-19T05:02:10.423Z,4.50
2018-01-19T05:04:44.050Z,6.27
2018-01-19T05:07:13.564Z,5.30
2018-01-19T05:09:43.089Z,5.40
2018-01-19T05:12:12.650Z,5.30
2018-01-19T05:14:42.149Z,4.43
2018-01-19T05:17:11.620Z,5.27
2018-01-19T05:19:41.235Z,6.20
2018-01-19T05:22:10.780Z,5.67
2018-01-19T05:24:41.214Z,6.40
2018-01-19T05:27:10.754Z,5.13
2018-01-19T05:29:40.291Z,4.53
2018-01-19T05:32:09.831Z,6.57
2018-01-19T05:34:51.955Z,6.43
2018-01-19T05:37:21.505Z,5.60
2018-01-19T05:39:51.112Z,5.23
2018-01-19T05:42:20.692Z,6.40
2018-01-19T05:44:50.187Z,5.33
2018-01-19T05:47:19.711Z,5.90
2018-01-19T05:49:49.235Z,6.90
2018-01-19T05:52:18.794Z,5.93
2018-01-19T05:54:48.353Z,5.73
2018-01-19T05:57:19.466Z,7.07
2018-01-19T05:59:49.910Z,6.90
2018-01-19T06:02:19.448Z,6.77
2018-01-19T06:04:49.998Z,8.17
2018-01-19T06:07:19.533Z,6.30
2018-01-19T06:09:49.018Z,6.13
2018-01-19T06:12:18.680Z,5.93
2018-01-19T06:14:48.354Z,7.10
2018-01-19T06:17:17.910Z,7.23
2018-01-19T06:19:53.781Z,6.20
2018-01-19T06:22:23.326Z,7.10
2018-01-19T06:24:54.340Z,6.30
2018-01-19T06:27:23.846Z,7.17
2018-01-19T06:29:53.393Z,5.30
2018-01-19T06:32:23.276Z,6.07
2018-01-19T06:34:52.825Z,5.10
2018-01-19T06:37:22.304Z,6.90
2018-01-19T06:39:51.940Z,4.70
2018-01-19T06:42:22.004Z,5.50
2018-01-19T06:44:51.572Z,5.37
2018-01-19T06:47:21.883Z,5.63
2018-01-19T06:49:51.429Z,4.30
2018-01-19T06:52:20.945Z,5.40
2018-01-19T06:54:50.422Z,7.50
2018-01-19T06:57:19.949Z,6.37
2018-01-19T07:00:09.826Z,4.83
2018-01-19T07:02:39.391Z,5.30
2018-01-19T07:05:08.872Z,6.97
2018-01-19T07:07:38.370Z,6.00
2018-01-19T07:10:07.898Z,6.37
2018-01-19T07:12:44.507Z,6.20
2018-01-19T07:15:14.169Z,6.40
2018-01-19T07:17:43.697Z,5.73
2018-01-19T07:20:13.276Z,5.67
2018-01-19T07:22:42.791Z,7.03
2018-01-19T07:25:12.297Z,6.40
2018-01-19T07:27:48.254Z,6.77
2018-01-19T07:30:17.837Z,5.90
2018-01-19T07:32:47.354Z,4.77
2018-01-19T07:35:16.910Z,5.93
2018-01-19T07:37:47.739Z,5.67
2018-01-19T07:40:17.378Z,5.07
2018-01-19T07:42:46.977Z,9.50
2018-01-19T07:45:16.937Z,7.87
2018-01-19T07:47:46.506Z,6.40
2018-01-19T07:50:16.482Z,6.47
2018-01-19T07:52:46.055Z,6.10
2018-01-19T07:55:15.598Z,6.33
2018-01-19T07:57:45.172Z,6.33
2018-01-19T08:00:14.696Z,7.23
2018-01-19T08:02:44.377Z,4.90
2018-01-19T08:05:13.946Z,6.30
2018-01-19T08:07:43.523Z,6.70
2018-01-19T08:10:13.056Z,7.10
2018-01-19T08:12:42.549Z,5.50
2018-01-19T08:15:16.866Z,5.77
2018-01-19T08:17:46.397Z,5.10
2018-01-19T08:20:16.057Z,5.00
2018-01-19T08:22:45.585Z,5.20
2018-01-19T08:25:15.200Z,5.87
2018-01-19T08:27:45.690Z,7.57
2018-01-19T08:30:15.240Z,7.00
2018-01-19T08:32:44.789Z,4.90
2018-01-19T08:35:14.346Z,5.20
2018-01-19T08:37:43.896Z,4.80
2018-01-19T08:40:13.455Z,5.00
2018-01-19T08:42:42.965Z,5.10
2018-01-19T08:45:12.480Z,7.03
2018-01-19T08:47:42.313Z,5.50
2018-01-19T08:50:11.855Z,5.80
2018-01-19T08:52:41.498Z,6.53
2018-01-19T08:55:18.393Z,4.93
2018-01-19T08:57:47.925Z,5.60
2018-01-19T09:00:17.411Z,7.40
2018-01-19T09:02:47.610Z,6.20
2018-01-19T09:05:17.230Z,7.23
2018-01-19T09:07:46.753Z,8.03
2018-01-19T09:10:16.339Z,6.57
2018-01-19T09:12:45.949Z,5.90
2018-01-19T09:15:22.398Z,6.60
2018-01-19T09:17:51.882Z,9.07
2018-01-19T09:20:21.808Z,9.23
2018-01-19T09:22:57.328Z,8.43
2018-01-19T09:25:26.900Z,8.83
2018-01-19T09:27:56.957Z,7.20
2018-01-19T09:30:26.461Z,7.53
2018-01-19T09:32:56.008Z,9.00
2018-01-19T09:35:25.562Z,9.00
2018-01-19T09:37:55.122Z,7.10
2018-01-19T09:40:25.040Z,6.83
2018-01-19T09:42:54.594Z,6.50
2018-01-19T09:45:30.181Z,6.80
2018-01-19T09:48:00.453Z,6.87
2018-01-19T09:50:30.085Z,7.03
2018-01-19T09:52:59.595Z,7.87
2018-01-19T09:55:29.330Z,7.77
2018-01-19T09:58:01.476Z,7.20
2018-01-19T10:00:38.274Z,7.80
2018-01-19T10:03:11.639Z,7.93
2018-01-19T10:05:42.451Z,9.17
2018-01-19T10:08:23.118Z,7.67
2018-01-19T10:10:53.204Z,7.90
2018-01-19T10:13:22.749Z,9.67
2018-01-19T10:15:52.316Z,8.50
2018-01-19T10:18:21.945Z,7.77
2018-01-19T10:20:51.464Z,8.83
2018-01-19T10:23:20.966Z,9.83
2018-01-19T10:25:50.626Z,9.37
2018-01-19T10:28:20.191Z,9.00
2018-01-19T10:30:49.737Z,10.00
2018-01-19T10:33:21.514Z,9.90
2018-01-19T10:35:51.070Z,9.13
2018-01-19T10:38:20.646Z,10.40
2018-01-19T10:40:50.166Z,9.00
2018-01-19T10:43:19.777Z,9.40
2018-01-19T10:45:56.679Z,9.50
2018-01-19T10:48:26.222Z,9.63
2018-01-19T10:50:55.754Z,10.70
2018-01-19T10:53:25.309Z,11.40
2018-01-19T10:55:54.891Z,9.97
2018-01-19T10:58:26.157Z,9.20
2018-01-19T11:00:55.737Z,9.93
2018-01-19T11:03:25.277Z,8.80
2018-01-19T11:05:54.821Z,9.63
2018-01-19T11:08:38.634Z,9.13
2018-01-19T11:11:08.169Z,7.73
2018-01-19T11:13:37.686Z,10.53
2018-01-19T11:16:07.355Z,8.53
2018-01-19T11:18:36.891Z,10.53
2018-01-19T11:21:06.673Z,9.47
2018-01-19T11:23:36.220Z,8.40
2018-01-19T11:26:05.786Z,8.83
2018-01-19T11:28:35.336Z,8.60
2018-01-19T11:31:04.930Z,8.40
2018-01-19T11:33:36.166Z,7.17
2018-01-19T11:36:05.685Z,6.70
2018-01-19T11:38:35.994Z,8.87
2018-01-19T11:41:06.734Z,7.30
2018-01-19T11:43:36.287Z,8.00
2018-01-19T11:46:06.108Z,7.33
2018-01-19T11:48:35.641Z,8.20
2018-01-19T11:51:05.180Z,9.10
2018-01-19T11:53:36.863Z,8.60
2018-01-19T11:56:06.480Z,8.43
2018-01-19T11:58:35.979Z,8.30
2018-01-19T12:01:05.489Z,8.60
2018-01-19T12:03:35.230Z,9.03
2018-01-19T12:06:05.389Z,9.33
2018-01-19T12:08:34.985Z,7.77
2018-01-19T12:11:04.489Z,8.50
2018-01-19T12:13:37.599Z,9.30
2018-01-19T12:16:14.381Z,9.67
2018-01-19T12:18:45.054Z,10.27
2018-01-19T12:21:14.595Z,8.60
2018-01-19T12:23:44.138Z,9.97
2018-01-19T12:26:13.659Z,9.70
2018-01-19T12:28:43.170Z,10.10
2018-01-19T12:31:12.677Z,9.80
2018-01-19T12:33:43.046Z,9.30
2018-01-19T12:36:12.545Z,8.40
2018-01-19T12:38:42.979Z,9.93
2018-01-19T12:41:12.614Z,10.33
2018-01-19T12:43:48.177Z,9.97
2018-01-19T12:46:18.122Z,11.90
2018-01-19T12:48:47.691Z,14.53
2018-01-19T12:51:17.253Z,16.90
2018-01-19T12:53:46.831Z,18.47
2018-01-19T12:56:16.356Z,16.13
2018-01-19T12:58:45.897Z,15.80
2018-01-19T13:01:21.845Z,14.07
2018-01-19T13:03:52.134Z,15.27
2018-01-19T13:06:21.964Z,13.90
2018-01-19T13:08:52.431Z,13.37
2018-01-19T13:11:22.103Z,13.43
2018-01-19T13:13:51.886Z,16.17
2018-01-19T13:16:21.778Z,11.60
2018-01-19T13:18:51.299Z,13.50
2018-01-19T13:21:20.857Z,14.00
2018-01-19T13:23:50.375Z,12.63
2018-01-19T13:26:25.961Z,13.57
2018-01-19T13:28:55.485Z,13.30
2018-01-19T13:31:25.081Z,13.50
2018-01-19T13:34:01.715Z,9.77
2018-01-19T13:36:32.303Z,12.87
2018-01-19T13:39:02.721Z,13.60
2018-01-19T13:41:32.447Z,13.23
2018-01-19T13:44:05.620Z,14.30
2018-01-19T13:46:45.121Z,14.60
2018-01-19T13:49:14.670Z,13.97
2018-01-19T13:51:50.298Z,12.63
2018-01-19T13:54:19.990Z,13.57
2018-01-19T13:56:49.505Z,14.10
2018-01-19T13:59:19.111Z,13.40
2018-01-19T14:01:50.481Z,13.47
2018-01-19T14:04:20.025Z,15.40
2018-01-19T14:06:50.138Z,16.03
2018-01-19T14:09:19.728Z,17.07
2018-01-19T14:11:49.348Z,15.67
2018-01-19T14:14:27.462Z,17.50
2018-01-19T14:16:57.958Z,16.90
2018-01-19T14:19:28.307Z,15.13
2018-01-19T14:21:58.759Z,12.93
2018-01-19T14:24:28.418Z,17.37
2018-01-19T14:26:57.919Z,18.73
2018-01-19T14:29:27.487Z,16.27
2018-01-19T14:32:10.775Z,16.83
2018-01-19T14:34:41.449Z,18.53
2018-01-19T14:37:11.145Z,17.00
2018-01-19T14:39:41.088Z,17.47
2018-01-19T14:42:10.678Z,17.23
2018-01-19T14:44:40.281Z,17.73
2018-01-19T14:47:10.400Z,17.90
2018-01-19T14:49:40.303Z,18.00
2018-01-19T14:52:09.879Z,17.67
2018-01-19T14:54:39.527Z,23.43
2018-01-19T14:57:09.138Z,18.47
2018-01-19T14:59:38.795Z,18.93
2018-01-19T15:02:09.310Z,18.57
2018-01-19T15:04:38.843Z,20.10
2018-01-19T15:07:09.174Z,19.73
2018-01-19T15:09:39.507Z,19.37
2018-01-19T15:12:09.083Z,17.70
2018-01-19T15:14:38.934Z,21.27
2018-01-19T15:17:08.481Z,18.67
2018-01-19T15:19:37.992Z,19.80
2018-01-19T15:22:07.515Z,16.97
2018-01-19T15:24:37.230Z,18.80
2018-01-19T15:27:07.171Z,18.33
2018-01-19T15:29:47.722Z,16.03
2018-01-19T15:32:17.679Z,17.10
2018-01-19T15:34:47.638Z,16.13
2018-01-19T15:37:19.005Z,17.53
2018-01-19T15:39:48.547Z,20.53
2018-01-19T15:42:18.084Z,15.70
2018-01-19T15:44:47.635Z,17.13
2018-01-19T15:47:17.213Z,18.47
2018-01-19T15:49:47.481Z,19.17
2018-01-19T15:52:17.072Z,17.87
2018-01-19T15:54:47.059Z,19.40
2018-01-19T15:57:19.358Z,21.43
2018-01-19T15:59:48.918Z,17.93
2018-01-19T16:02:20.313Z,19.13
2018-01-19T16:04:51.653Z,19.00
2018-01-19T16:07:21.474Z,25.33
2018-01-19T16:09:51.042Z,22.70
2018-01-19T16:12:21.720Z,26.70
2018-01-19T16:14:51.530Z,26.13
2018-01-19T16:17:27.548Z,25.00
2018-01-19T16:19:57.513Z,24.50
2018-01-19T16:22:27.377Z,26.97
2018-01-19T16:24:57.126Z,26.70
2018-01-19T16:27:47.970Z,20.90
2018-01-19T16:30:17.585Z,16.37
2018-01-19T16:32:47.094Z,15.50
2018-01-19T16:35:16.662Z,15.57
2018-01-19T16:37:46.213Z,14.70
2018-01-19T16:40:15.848Z,13.37
2018-01-19T16:42:45.387Z,15.20
2018-01-19T16:45:15.038Z,14.57
2018-01-19T16:47:46.639Z,13.03
2018-01-19T16:50:16.168Z,14.20
2018-01-19T16:52:45.665Z,16.70
2018-01-19T16:55:15.203Z,13.97
2018-01-19T16:57:45.009Z,17.57
2018-01-19T17:00:18.458Z,14.73
2018-01-19T17:02:54.654Z,14.80
2018-01-19T17:05:24.620Z,14.33
2018-01-19T17:07:54.312Z,18.17
2018-01-19T17:10:23.887Z,14.33
2018-01-19T17:12:53.473Z,14.60
2018-01-19T17:15:23.119Z,15.53
2018-01-19T17:17:52.819Z,15.07
2018-01-19T17:20:22.392Z,13.50
2018-01-19T17:22:52.094Z,14.00
2018-01-19T17:25:34.188Z,14.60
2018-01-19T17:28:03.998Z,15.13
2018-01-19T17:30:34.193Z,16.00
2018-01-19T17:33:04.281Z,14.90
2018-01-19T17:35:34.901Z,15.53
2018-01-19T17:38:04.444Z,14.23
2018-01-19T17:40:41.151Z,13.40
2018-01-19T17:43:11.460Z,13.90
2018-01-19T17:45:41.028Z,12.27
2018-01-19T17:48:10.572Z,12.70
2018-01-19T17:50:40.067Z,11.53
2018-01-19T17:53:12.750Z,11.93
2018-01-19T17:55:42.312Z,10.00
2018-01-19T17:58:11.833Z,8.67
2018-01-19T18:00:47.390Z,12.13
2018-01-19T18:03:17.059Z,11.47
2018-01-19T18:05:48.628Z,13.03
2018-01-19T18:08:18.294Z,9.73
2018-01-19T18:10:47.830Z,9.57
2018-01-19T18:13:25.536Z,10.30
2018-01-19T18:15:55.119Z,8.10
2018-01-19T18:18:25.002Z,10.07
2018-01-19T18:20:54.545Z,8.37
2018-01-19T18:23:24.092Z,8.70
2018-01-19T18:25:53.639Z,9.17
2018-01-19T18:28:23.192Z,9.13
2018-01-19T18:30:52.745Z,8.60
2018-01-19T18:33:22.326Z,10.20
2018-01-19T18:35:51.879Z,9.10
2018-01-19T18:38:21.447Z,9.53
2018-01-19T18:40:50.956Z,9.73
2018-01-19T18:43:21.457Z,9.07
2018-01-19T18:45:51.097Z,7.67
2018-01-19T18:48:20.728Z,8.20
2018-01-19T18:50:50.289Z,6.53
2018-01-19T18:53:20.726Z,7.20
2018-01-19T18:55:50.301Z,8.77
2018-01-19T18:58:19.848Z,8.93
2018-01-19T19:00:49.424Z,8.67
2018-01-19T19:03:19.045Z,8.10
2018-01-19T19:05:48.827Z,9.53
2018-01-19T19:08:18.400Z,7.77
2018-01-19T19:10:47.909Z,7.07
2018-01-19T19:13:17.756Z,6.87
2018-01-19T19:15:47.322Z,9.80
2018-01-19T19:18:20.340Z,7.90
2018-01-19T19:20:49.880Z,7.83
2018-01-19T19:23:19.630Z,7.00
2018-01-19T19:25:49.216Z,6.30
2018-01-19T19:28:18.928Z,7.27
2018-01-19T19:30:48.448Z,6.40
2018-01-19T19:33:19.343Z,6.23
2018-01-19T19:35:48.922Z,6.07
2018-01-19T19:38:19.125Z,6.53
2018-01-19T19:40:48.708Z,8.37
2018-01-19T19:43:18.485Z,6.70
2018-01-19T19:45:48.254Z,6.27
2018-01-19T19:48:17.899Z,9.17
2018-01-19T19:50:47.687Z,8.70
2018-01-19T19:53:23.263Z,9.30
2018-01-19T19:55:53.010Z,7.53
2018-01-19T19:58:22.748Z,8.70
2018-01-19T20:00:52.562Z,8.40
2018-01-19T20:03:22.253Z,8.63
2018-01-19T20:05:52.080Z,9.87
2018-01-19T20:08:21.624Z,7.70
2018-01-19T20:10:51.248Z,7.10
2018-01-19T20:13:21.028Z,7.30
2018-01-19T20:15:50.537Z,7.57
2018-01-19T20:18:20.045Z,7.80
2018-01-19T20:20:49.601Z,7.40
2018-01-19T20:23:19.125Z,6.73
2018-01-19T20:25:48.635Z,7.27
2018-01-19T20:28:18.116Z,8.60
2018-01-19T20:30:49.019Z,7.57
2018-01-19T20:33:18.785Z,8.10
2018-01-19T20:35:48.740Z,7.47
2018-01-19T20:38:18.627Z,8.17
2018-01-19T20:40:48.583Z,6.40
2018-01-19T20:43:18.096Z,7.20
2018-01-19T20:45:48.430Z,6.67
2018-01-19T20:48:17.965Z,7.33
2018-01-19T20:50:47.474Z,6.50
2018-01-19T20:53:17.116Z,6.63
2018-01-19T20:56:00.122Z,6.67
2018-01-19T20:58:29.967Z,6.87
2018-01-19T21:01:00.624Z,7.37
2018-01-19T21:03:30.431Z,7.40
2018-01-19T21:06:12.134Z,6.97
2018-01-19T21:08:41.696Z,6.80
2018-01-19T21:11:11.221Z,5.90
2018-01-19T21:13:40.844Z,7.00
2018-01-19T21:16:10.408Z,6.70
2018-01-19T21:18:39.946Z,6.63
2018-01-19T21:21:09.639Z,6.10
2018-01-19T21:23:39.181Z,7.60
2018-01-19T21:26:08.834Z,6.10
2018-01-19T21:28:38.339Z,6.50
2018-01-19T21:31:20.805Z,6.60
2018-01-19T21:33:50.549Z,6.20
2018-01-19T21:36:23.093Z,6.63
2018-01-19T21:38:52.712Z,6.00
2018-01-19T21:41:22.420Z,6.57
2018-01-19T21:43:52.080Z,6.03
2018-01-19T21:46:21.688Z,6.63
2018-01-19T21:48:51.190Z,6.37
2018-01-19T21:51:20.724Z,6.17
2018-01-19T21:53:53.597Z,5.93
2018-01-19T21:56:23.192Z,5.87
2018-01-19T21:58:52.764Z,5.90
2018-01-19T22:01:22.880Z,5.80
2018-01-19T22:03:52.820Z,6.53
2018-01-19T22:06:22.423Z,6.67
2018-01-19T22:08:51.962Z,5.40
2018-01-19T22:11:21.483Z,5.90
2018-01-19T22:13:57.061Z,5.70
2018-01-19T22:16:27.780Z,5.20
2018-01-19T22:18:57.348Z,5.40
2018-01-19T22:21:28.264Z,5.53
2018-01-19T22:23:58.029Z,4.60
2018-01-19T22:26:27.696Z,5.03
2018-01-19T22:28:57.209Z,5.50
2018-01-19T22:31:26.758Z,6.87
2018-01-19T22:33:56.317Z,4.90
2018-01-19T22:36:25.889Z,5.53
2018-01-19T22:39:09.308Z,5.43
2018-01-19T22:41:40.232Z,5.00
2018-01-19T22:44:10.033Z,6.43
2018-01-19T22:46:39.743Z,6.30
2018-01-19T22:49:09.249Z,5.97
2018-01-19T22:51:39.152Z,6.13
2018-01-19T22:54:08.656Z,7.00
2018-01-19T22:56:38.169Z,6.90
2018-01-19T22:59:08.204Z,6.03
2018-01-19T23:01:37.863Z,7.17
2018-01-19T23:04:07.440Z,6.77
2018-01-19T23:06:36.942Z,7.33
2018-01-19T23:09:06.493Z,9.40
2018-01-19T23:11:36.047Z,8.47
2018-01-19T23:14:05.644Z,8.23
2018-01-19T23:16:35.174Z,7.00
2018-01-19T23:19:04.718Z,7.77
2018-01-19T23:21:34.246Z,7.60
2018-01-19T23:24:04.357Z,8.30
2018-01-19T23:26:33.906Z,9.47
2018-01-19T23:29:16.104Z,10.50
2018-01-19T23:31:45.623Z,9.33
2018-01-19T23:34:19.316Z,9.37
2018-01-19T23:36:48.837Z,8.37
2018-01-19T23:39:27.162Z,7.33
2018-01-19T23:41:57.093Z,8.30
2018-01-19T23:44:26.680Z,7.80
2018-01-19T23:46:56.992Z,7.20
2018-01-19T23:49:26.530Z,7.33
2018-01-19T23:51:56.096Z,6.73
2018-01-19T23:54:25.661Z,6.90
2018-01-19T23:56:56.020Z,7.57
2018-01-19T23:59:25.663Z,6.80
